createdAt,value
2022-12-29T00:00:13.238Z,6.38
2022-12-29T00:02:40.273Z,6.37
2022-12-29T00:05:08.115Z,6.37
2022-12-29T00:07:35.030Z,6.38
2022-12-29T00:10:01.890Z,6.37
2022-12-29T00:12:51.358Z,6.40
2022-12-29T00:15:37.015Z,6.44
2022-12-29T00:18:04.087Z,6.46
2022-12-29T00:20:50.040Z,6.46
2022-12-29T00:23:35.406Z,6.47
2022-12-29T00:26:23.513Z,6.50
2022-12-29T00:29:10.143Z,6.51
2022-12-29T00:31:55.574Z,6.51
2022-12-29T00:34:41.066Z,6.56
2022-12-29T00:37:07.915Z,6.54
2022-12-29T00:39:53.799Z,6.58
2022-12-29T00:42:39.381Z,6.55
2022-12-29T00:45:06.685Z,6.55
2022-12-29T00:47:33.931Z,6.55
2022-12-29T00:50:01.104Z,6.54
2022-12-29T00:52:28.209Z,6.55
2022-12-29T00:54:55.280Z,6.59
2022-12-29T00:57:22.079Z,6.57
2022-12-29T00:59:49.115Z,6.58
2022-12-29T01:02:16.395Z,6.57
2022-12-29T01:04:43.741Z,6.58
2022-12-29T01:07:10.508Z,6.57
2022-12-29T01:09:56.564Z,6.53
2022-12-29T01:12:41.741Z,6.57
2022-12-29T01:15:12.599Z,6.57
2022-12-29T01:17:39.737Z,6.56
2022-12-29T01:20:07.088Z,6.57
2022-12-29T01:22:34.134Z,6.55
2022-12-29T01:25:00.909Z,6.55
2022-12-29T01:27:27.822Z,6.59
2022-12-29T01:29:54.544Z,6.55
2022-12-29T01:32:21.367Z,6.57
2022-12-29T01:34:48.210Z,6.59
2022-12-29T01:37:15.020Z,6.60
2022-12-29T01:39:41.830Z,6.58
2022-12-29T01:42:17.232Z,6.57
2022-12-29T01:44:56.546Z,6.59
2022-12-29T01:47:34.944Z,6.59
2022-12-29T01:50:19.026Z,6.60
2022-12-29T01:52:53.782Z,6.59
2022-12-29T01:55:20.778Z,6.57
2022-12-29T01:57:50.226Z,6.55
2022-12-29T02:00:17.903Z,6.57
2022-12-29T02:02:52.397Z,6.55
2022-12-29T02:05:43.727Z,6.53
2022-12-29T02:08:13.967Z,6.55
2022-12-29T02:10:41.735Z,6.58
2022-12-29T02:13:08.467Z,6.57
2022-12-29T02:15:47.879Z,6.55
2022-12-29T02:18:33.866Z,6.54
2022-12-29T02:21:26.067Z,6.54
2022-12-29T02:24:14.947Z,6.57
2022-12-29T02:26:48.053Z,6.61
2022-12-29T02:29:39.735Z,6.59
2022-12-29T02:32:19.485Z,6.55
2022-12-29T02:34:58.690Z,6.55
2022-12-29T02:37:30.143Z,6.53
2022-12-29T02:40:22.819Z,6.52
2022-12-29T02:42:51.388Z,6.55
2022-12-29T02:45:33.612Z,6.63
2022-12-29T02:48:11.370Z,6.60
2022-12-29T02:50:45.713Z,6.63
2022-12-29T02:53:17.503Z,6.63
2022-12-29T02:55:51.292Z,6.63
2022-12-29T02:58:23.708Z,6.65
2022-12-29T03:01:06.481Z,6.68
2022-12-29T03:04:22.375Z,6.64
2022-12-29T03:07:18.280Z,6.68
2022-12-29T03:09:55.715Z,6.75
2022-12-29T03:12:51.018Z,6.74
2022-12-29T03:15:52.943Z,6.76
2022-12-29T03:18:34.155Z,6.77
2022-12-29T03:21:10.765Z,6.80
2022-12-29T03:23:38.601Z,6.81
2022-12-29T03:26:10.412Z,6.83
2022-12-29T03:28:40.681Z,6.82
2022-12-29T03:31:09.987Z,6.89
2022-12-29T03:33:40.075Z,6.93
2022-12-29T03:36:12.224Z,6.98
2022-12-29T03:38:53.241Z,6.95
2022-12-29T03:41:23.884Z,7.00
2022-12-29T03:43:51.855Z,6.99
2022-12-29T03:46:18.714Z,7.03
2022-12-29T03:48:45.519Z,7.06
2022-12-29T03:51:12.403Z,7.08
2022-12-29T03:53:39.879Z,7.10
2022-12-29T03:56:06.915Z,7.14
2022-12-29T03:58:34.378Z,7.15
2022-12-29T04:01:27.313Z,7.19
2022-12-29T04:03:54.245Z,7.20
2022-12-29T04:06:21.155Z,7.23
2022-12-29T04:09:08.952Z,7.27
2022-12-29T04:11:41.145Z,7.27
2022-12-29T04:14:08.272Z,7.26
2022-12-29T04:16:37.015Z,7.28
2022-12-29T04:19:06.705Z,7.32
2022-12-29T04:21:35.160Z,7.32
2022-12-29T04:24:02.476Z,7.33
2022-12-29T04:26:29.352Z,7.37
2022-12-29T04:29:12.936Z,7.33
2022-12-29T04:31:56.072Z,7.43
2022-12-29T04:34:22.974Z,7.33
2022-12-29T04:36:49.766Z,7.38
2022-12-29T04:39:17.800Z,7.39
2022-12-29T04:41:44.990Z,7.39
2022-12-29T04:44:16.575Z,7.55
2022-12-29T04:47:20.162Z,7.74
2022-12-29T04:50:10.266Z,7.63
2022-12-29T04:52:43.633Z,7.57
2022-12-29T04:55:12.374Z,7.51
2022-12-29T04:57:40.473Z,7.50
2022-12-29T05:00:10.165Z,7.46
2022-12-29T05:02:38.603Z,7.47
2022-12-29T05:05:06.320Z,7.43
2022-12-29T05:08:06.710Z,7.42
2022-12-29T05:10:35.996Z,7.40
2022-12-29T05:13:08.389Z,7.43
2022-12-29T05:15:35.136Z,7.46
2022-12-29T05:18:01.999Z,7.51
2022-12-29T05:20:29.664Z,7.49
2022-12-29T05:22:57.582Z,7.54
2022-12-29T05:25:24.656Z,7.53
2022-12-29T05:27:57.890Z,7.54
2022-12-29T05:30:38.045Z,7.54
2022-12-29T05:33:07.544Z,7.56
2022-12-29T05:35:35.050Z,7.57
2022-12-29T05:38:01.805Z,7.60
2022-12-29T05:40:28.695Z,7.59
2022-12-29T05:43:00.856Z,7.62
2022-12-29T05:45:41.220Z,7.65
2022-12-29T05:48:24.330Z,7.74
2022-12-29T05:51:08.619Z,7.74
2022-12-29T05:53:46.912Z,7.76
2022-12-29T05:56:13.773Z,7.77
2022-12-29T05:58:41.138Z,7.83
2022-12-29T06:01:08.128Z,7.84
2022-12-29T06:03:34.902Z,7.87
2022-12-29T06:06:02.300Z,7.88
2022-12-29T06:08:29.479Z,7.89
2022-12-29T06:10:56.178Z,7.92
2022-12-29T06:13:25.097Z,7.95
2022-12-29T06:15:52.319Z,8.00
2022-12-29T06:18:20.375Z,8.00
2022-12-29T06:20:47.689Z,8.06
2022-12-29T06:23:17.601Z,8.05
2022-12-29T06:25:44.376Z,8.06
2022-12-29T06:28:11.855Z,8.10
2022-12-29T06:30:39.121Z,8.12
2022-12-29T06:33:05.838Z,8.14
2022-12-29T06:35:32.554Z,8.11
2022-12-29T06:38:00.008Z,8.14
2022-12-29T06:40:26.765Z,8.15
2022-12-29T06:43:13.958Z,8.15
2022-12-29T06:45:59.396Z,8.17
2022-12-29T06:48:26.155Z,8.21
2022-12-29T06:50:52.850Z,8.23
2022-12-29T06:53:19.789Z,8.28
2022-12-29T06:55:46.454Z,8.27
2022-12-29T06:58:13.252Z,8.26
2022-12-29T07:00:40.586Z,8.37
2022-12-29T07:03:07.352Z,8.34
2022-12-29T07:05:34.178Z,8.34
2022-12-29T07:08:03.494Z,8.35
2022-12-29T07:10:30.407Z,8.32
2022-12-29T07:12:57.498Z,8.33
2022-12-29T07:15:24.663Z,8.30
2022-12-29T07:17:51.513Z,8.29
2022-12-29T07:20:24.763Z,8.33
2022-12-29T07:22:54.585Z,8.34
2022-12-29T07:25:21.743Z,8.29
2022-12-29T07:27:49.688Z,8.36
2022-12-29T07:30:17.010Z,8.38
2022-12-29T07:32:47.407Z,8.40
2022-12-29T07:35:14.318Z,8.43
2022-12-29T07:37:44.635Z,8.42
2022-12-29T07:40:12.323Z,8.55
2022-12-29T07:42:39.392Z,8.85
2022-12-29T07:45:10.413Z,8.85
2022-12-29T07:47:50.320Z,8.96
2022-12-29T07:50:17.418Z,8.90
2022-12-29T07:52:44.197Z,9.04
2022-12-29T07:55:10.918Z,9.04
2022-12-29T07:57:37.968Z,9.02
2022-12-29T08:00:05.481Z,8.89
2022-12-29T08:02:39.114Z,8.78
2022-12-29T08:05:06.391Z,8.74
2022-12-29T08:07:33.068Z,8.68
2022-12-29T08:10:00.067Z,8.63
2022-12-29T08:12:26.840Z,8.64
2022-12-29T08:14:53.591Z,8.68
2022-12-29T08:17:20.291Z,8.70
2022-12-29T08:19:47.003Z,8.74
2022-12-29T08:22:15.499Z,8.69
2022-12-29T08:24:42.165Z,8.73
2022-12-29T08:27:17.813Z,8.71
2022-12-29T08:29:49.137Z,8.71
2022-12-29T08:32:16.452Z,8.73
2022-12-29T08:34:43.146Z,8.75
2022-12-29T08:37:09.883Z,8.75
2022-12-29T08:39:36.507Z,8.77
2022-12-29T08:42:03.233Z,8.77
2022-12-29T08:44:29.995Z,8.83
2022-12-29T08:46:56.737Z,8.83
2022-12-29T08:49:23.529Z,8.79
2022-12-29T08:51:51.448Z,8.79
2022-12-29T08:54:18.111Z,8.80
2022-12-29T08:56:46.092Z,8.87
2022-12-29T08:59:14.185Z,8.94
2022-12-29T09:01:42.345Z,8.91
2022-12-29T09:04:17.608Z,8.93
2022-12-29T09:06:46.191Z,8.91
2022-12-29T09:09:13.659Z,8.93
2022-12-29T09:11:40.383Z,8.97
2022-12-29T09:14:07.150Z,9.05
2022-12-29T09:16:34.513Z,9.07
2022-12-29T09:19:01.756Z,9.08
2022-12-29T09:21:28.412Z,9.08
2022-12-29T09:23:55.142Z,9.10
2022-12-29T09:26:21.767Z,9.11
2022-12-29T09:28:48.489Z,9.13
2022-12-29T09:31:15.471Z,9.15
2022-12-29T09:33:42.529Z,9.20
2022-12-29T09:36:09.588Z,9.23
2022-12-29T09:38:36.340Z,9.28
2022-12-29T09:41:22.126Z,9.27
2022-12-29T09:44:14.470Z,9.33
2022-12-29T09:46:43.079Z,9.30
2022-12-29T09:49:20.682Z,9.34
2022-12-29T09:51:50.658Z,9.33
2022-12-29T09:54:59.812Z,9.30
2022-12-29T09:57:35.589Z,9.37
2022-12-29T10:00:06.888Z,9.39
2022-12-29T10:02:46.009Z,9.50
2022-12-29T10:05:30.855Z,9.52
2022-12-29T10:08:17.898Z,9.48
2022-12-29T10:10:56.211Z,9.51
2022-12-29T10:13:28.956Z,9.62
2022-12-29T10:16:10.176Z,9.65
2022-12-29T10:18:58.668Z,9.61
2022-12-29T10:21:41.101Z,9.65
2022-12-29T10:24:12.425Z,9.71
2022-12-29T10:26:44.460Z,9.78
2022-12-29T10:29:22.172Z,9.72
2022-12-29T10:31:53.609Z,9.80
2022-12-29T10:34:24.336Z,9.88
2022-12-29T10:36:57.690Z,9.98
2022-12-29T10:39:36.235Z,10.05
2022-12-29T10:42:28.643Z,10.06
2022-12-29T10:44:56.613Z,9.99
2022-12-29T10:47:26.537Z,10.00
2022-12-29T10:49:53.667Z,10.00
2022-12-29T10:52:21.265Z,10.01
2022-12-29T10:54:50.930Z,10.07
2022-12-29T10:57:27.967Z,10.04
2022-12-29T10:59:55.238Z,10.09
2022-12-29T11:02:42.981Z,10.11
2022-12-29T11:05:34.642Z,10.11
2022-12-29T11:08:04.619Z,10.17
2022-12-29T11:10:38.052Z,10.24
2022-12-29T11:13:21.517Z,10.29
2022-12-29T11:15:50.478Z,10.24
2022-12-29T11:18:35.006Z,10.16
2022-12-29T11:21:03.943Z,10.14
2022-12-29T11:23:37.001Z,10.25
2022-12-29T11:26:22.449Z,10.28
2022-12-29T11:29:09.819Z,10.30
2022-12-29T11:31:44.994Z,10.28
2022-12-29T11:34:19.539Z,10.29
2022-12-29T11:36:47.061Z,10.30
2022-12-29T11:39:29.138Z,10.25
2022-12-29T11:41:55.923Z,10.28
2022-12-29T11:44:22.646Z,10.31
2022-12-29T11:46:51.179Z,10.26
2022-12-29T11:49:23.899Z,10.26
2022-12-29T11:51:52.731Z,10.27
2022-12-29T11:54:32.517Z,10.24
2022-12-29T11:57:00.218Z,10.22
2022-12-29T11:59:31.015Z,10.19
2022-12-29T12:01:58.054Z,10.22
2022-12-29T12:04:27.814Z,10.18
2022-12-29T12:07:06.384Z,10.11
2022-12-29T12:09:37.882Z,10.10
2022-12-29T12:12:04.846Z,10.05
2022-12-29T12:14:39.111Z,9.99
2022-12-29T12:17:21.875Z,9.95
2022-12-29T12:19:57.993Z,9.94
2022-12-29T12:22:38.548Z,9.91
2022-12-29T12:25:12.666Z,9.87
2022-12-29T12:27:47.256Z,9.84
2022-12-29T12:30:21.199Z,9.83
2022-12-29T12:32:54.048Z,9.79
2022-12-29T12:35:38.582Z,9.77
2022-12-29T12:38:08.268Z,9.77
2022-12-29T12:40:59.417Z,9.73
2022-12-29T12:43:42.081Z,9.68
2022-12-29T12:46:11.688Z,9.65
2022-12-29T12:48:56.761Z,9.64
2022-12-29T12:51:36.463Z,9.62
2022-12-29T12:54:28.499Z,9.61
2022-12-29T12:57:03.906Z,9.60
2022-12-29T12:59:38.753Z,9.60
2022-12-29T13:02:37.912Z,9.58
2022-12-29T13:05:26.661Z,9.64
2022-12-29T13:08:01.530Z,9.75
2022-12-29T13:10:45.910Z,9.75
2022-12-29T13:13:43.224Z,9.78
2022-12-29T13:16:30.640Z,9.84
2022-12-29T13:19:10.309Z,9.86
2022-12-29T13:22:07.122Z,9.84
2022-12-29T13:24:40.441Z,9.85
2022-12-29T13:27:37.381Z,9.79
2022-12-29T13:30:17.437Z,9.75
2022-12-29T13:33:25.470Z,9.79
2022-12-29T13:36:10.958Z,9.80
2022-12-29T13:38:40.615Z,9.84
2022-12-29T13:41:11.002Z,9.89
2022-12-29T13:43:41.058Z,9.92
2022-12-29T13:46:12.103Z,9.92
2022-12-29T13:48:44.821Z,9.88
2022-12-29T13:51:12.628Z,9.89
2022-12-29T13:53:55.922Z,9.84
2022-12-29T13:56:27.475Z,9.84
2022-12-29T13:58:58.996Z,9.79
2022-12-29T14:01:55.956Z,9.73
2022-12-29T14:04:26.730Z,9.69
2022-12-29T14:07:05.402Z,9.65
2022-12-29T14:09:44.604Z,9.65
2022-12-29T14:12:23.721Z,9.61
2022-12-29T14:14:50.635Z,9.59
2022-12-29T14:17:21.575Z,9.59
2022-12-29T14:19:53.050Z,9.58
2022-12-29T14:22:32.628Z,9.55
2022-12-29T14:25:00.198Z,9.51
2022-12-29T14:28:01.832Z,9.50
2022-12-29T14:30:52.371Z,9.48
2022-12-29T14:33:22.031Z,9.46
2022-12-29T14:39:24.787Z,9.46
2022-12-29T14:42:02.995Z,9.44
2022-12-29T14:44:29.931Z,9.43
2022-12-29T14:46:58.286Z,9.45
2022-12-29T14:49:33.263Z,9.39
2022-12-29T14:52:22.672Z,9.35
2022-12-29T14:54:51.033Z,9.35
2022-12-29T14:57:32.476Z,9.41
2022-12-29T15:00:10.254Z,9.37
2022-12-29T15:02:41.057Z,9.38
2022-12-29T15:06:33.304Z,9.43
2022-12-29T15:12:46.664Z,9.41
2022-12-29T15:19:42.461Z,7.86
2022-12-29T15:22:11.335Z,7.34
2022-12-29T15:24:43.557Z,7.05
2022-12-29T15:27:14.887Z,6.94
2022-12-29T15:29:44.999Z,7.15
2022-12-29T15:32:26.746Z,7.37
2022-12-29T15:34:56.578Z,7.41
2022-12-29T15:37:37.153Z,7.57
2022-12-29T15:40:04.825Z,7.59
2022-12-29T15:42:59.787Z,7.70
2022-12-29T15:45:34.060Z,7.70
2022-12-29T15:48:29.330Z,7.71
2022-12-29T15:51:06.711Z,7.75
2022-12-29T15:53:44.478Z,7.76
2022-12-29T15:56:19.222Z,7.82
2022-12-29T15:59:33.174Z,7.74
2022-12-29T16:02:31.671Z,7.77
2022-12-29T16:05:18.776Z,7.75
2022-12-29T16:08:07.017Z,7.78
2022-12-29T16:10:43.928Z,7.78
2022-12-29T16:13:27.664Z,7.78
2022-12-29T16:16:12.748Z,7.83
2022-12-29T16:18:45.430Z,7.84
2022-12-29T16:21:22.636Z,7.92
2022-12-29T16:24:04.158Z,7.94
2022-12-29T16:30:09.464Z,7.98
2022-12-29T16:36:54.639Z,8.10
2022-12-29T16:40:34.672Z,8.11
2022-12-29T16:44:39.968Z,8.09
2022-12-29T16:47:30.020Z,8.09
2022-12-29T16:50:28.833Z,8.13
2022-12-29T16:53:22.938Z,8.21
2022-12-29T16:56:35.937Z,8.23
2022-12-29T17:03:21.983Z,8.16
2022-12-29T17:09:44.656Z,8.14
2022-12-29T17:12:33.025Z,8.16
2022-12-29T17:15:25.483Z,8.21
2022-12-29T17:18:13.489Z,8.22
2022-12-29T17:20:55.022Z,8.24
2022-12-29T17:23:43.007Z,8.27
2022-12-29T17:26:29.488Z,8.28
2022-12-29T17:29:21.073Z,8.30
2022-12-29T17:32:07.922Z,8.25
2022-12-29T17:35:12.802Z,8.29
2022-12-29T17:38:19.142Z,8.35
2022-12-29T17:41:04.877Z,8.40
2022-12-29T17:43:52.419Z,8.38
2022-12-29T17:46:27.123Z,8.43
2022-12-29T17:48:54.329Z,8.48
2022-12-29T17:51:27.532Z,8.53
2022-12-29T17:53:54.376Z,8.56
2022-12-29T17:56:21.196Z,8.59
2022-12-29T17:58:48.565Z,8.63
2022-12-29T18:01:15.515Z,8.65
2022-12-29T18:03:42.408Z,8.64
2022-12-29T18:06:11.433Z,8.67
2022-12-29T18:08:40.037Z,8.63
2022-12-29T18:11:20.647Z,8.62
2022-12-29T18:13:47.388Z,8.65
2022-12-29T18:16:14.302Z,8.66
2022-12-29T18:18:41.170Z,8.68
2022-12-29T18:21:14.927Z,8.68
2022-12-29T18:23:42.053Z,8.69
2022-12-29T18:26:28.750Z,8.67
2022-12-29T18:28:58.952Z,8.71
2022-12-29T18:31:28.243Z,8.89
2022-12-29T18:33:55.172Z,8.88
2022-12-29T18:36:22.581Z,8.81
2022-12-29T18:38:50.817Z,8.78
2022-12-29T18:41:20.571Z,8.77
2022-12-29T18:43:47.685Z,8.69
2022-12-29T18:46:22.099Z,8.71
2022-12-29T18:48:50.531Z,8.66
2022-12-29T18:51:21.544Z,8.62
2022-12-29T18:53:48.720Z,8.57
2022-12-29T18:56:15.525Z,8.56
2022-12-29T18:58:42.368Z,8.57
2022-12-29T19:01:19.790Z,8.52
2022-12-29T19:03:46.920Z,8.55
2022-12-29T19:06:13.732Z,8.57
2022-12-29T19:08:40.446Z,8.58
2022-12-29T19:11:07.159Z,8.57
2022-12-29T19:13:33.967Z,8.61
2022-12-29T19:16:01.139Z,8.59
2022-12-29T19:18:46.311Z,8.64
2022-12-29T19:21:15.552Z,8.66
2022-12-29T19:23:42.330Z,8.68
2022-12-29T19:26:27.356Z,8.66
2022-12-29T19:28:57.028Z,8.64
2022-12-29T19:31:24.180Z,8.64
2022-12-29T19:33:51.496Z,8.61
2022-12-29T19:36:19.117Z,8.59
2022-12-29T19:38:46.593Z,8.62
2022-12-29T19:41:14.844Z,8.67
2022-12-29T19:43:41.731Z,8.68
2022-12-29T19:46:15.408Z,8.65
2022-12-29T19:48:42.357Z,8.60
2022-12-29T19:51:11.996Z,8.59
2022-12-29T19:53:38.857Z,8.60
2022-12-29T19:56:07.654Z,8.58
2022-12-29T19:58:35.975Z,8.57
2022-12-29T20:01:09.219Z,8.53
2022-12-29T20:03:36.385Z,8.52
2022-12-29T20:06:05.542Z,8.53
2022-12-29T20:08:32.410Z,8.50
2022-12-29T20:11:13.819Z,8.55
2022-12-29T20:13:41.250Z,8.55
2022-12-29T20:17:10.872Z,8.51
2022-12-29T20:19:52.387Z,8.46
2022-12-29T20:22:19.331Z,8.47
2022-12-29T20:24:50.005Z,8.45
2022-12-29T20:27:23.781Z,8.40
2022-12-29T20:29:59.866Z,8.41
2022-12-29T20:32:27.814Z,8.46
2022-12-29T20:34:54.599Z,8.40
2022-12-29T20:37:21.858Z,8.41
2022-12-29T20:39:48.744Z,8.39
2022-12-29T20:42:16.815Z,8.37
2022-12-29T20:44:50.974Z,8.35
2022-12-29T20:47:17.829Z,8.38
2022-12-29T20:49:44.543Z,8.40
2022-12-29T20:52:11.291Z,8.38
2022-12-29T20:54:39.834Z,8.34
2022-12-29T20:57:07.107Z,8.34
2022-12-29T20:59:33.902Z,8.33
2022-12-29T21:02:00.793Z,8.32
2022-12-29T21:04:27.707Z,8.32
2022-12-29T21:06:57.905Z,8.37
2022-12-29T21:09:24.995Z,8.33
2022-12-29T21:11:51.848Z,8.32
2022-12-29T21:14:18.562Z,8.34
2022-12-29T21:16:45.431Z,8.32
2022-12-29T21:19:13.514Z,8.34
2022-12-29T21:21:40.305Z,8.35
2022-12-29T21:24:07.518Z,8.37
2022-12-29T21:26:34.366Z,8.37
2022-12-29T21:29:03.966Z,8.37
2022-12-29T21:31:33.739Z,8.39
2022-12-29T21:34:01.634Z,8.39
2022-12-29T21:36:29.256Z,8.33
2022-12-29T21:38:59.452Z,8.38
2022-12-29T21:41:26.317Z,8.41
2022-12-29T21:44:12.191Z,8.47
2022-12-29T21:46:41.037Z,8.43
2022-12-29T21:49:08.529Z,8.45
2022-12-29T21:51:51.078Z,8.48
2022-12-29T21:54:45.136Z,8.48
2022-12-29T21:57:17.933Z,8.45
2022-12-29T22:00:06.474Z,8.46
2022-12-29T22:02:54.809Z,8.48
2022-12-29T22:05:40.554Z,8.41
2022-12-29T22:08:26.096Z,8.38
2022-12-29T22:11:11.688Z,8.34
2022-12-29T22:13:39.394Z,8.34
2022-12-29T22:16:08.885Z,8.41
2022-12-29T22:18:36.769Z,8.39
2022-12-29T22:21:05.582Z,8.39
2022-12-29T22:23:32.436Z,8.41
2022-12-29T22:26:03.742Z,8.41
2022-12-29T22:28:30.592Z,8.39
2022-12-29T22:30:57.382Z,8.41
2022-12-29T22:33:24.113Z,8.34
2022-12-29T22:35:50.876Z,8.39
2022-12-29T22:38:17.603Z,8.34
2022-12-29T22:40:44.553Z,8.33
2022-12-29T22:43:13.367Z,8.40
2022-12-29T22:45:41.277Z,8.37
2022-12-29T22:48:08.794Z,8.33
2022-12-29T22:50:35.495Z,8.34
2022-12-29T22:53:05.021Z,8.35
2022-12-29T22:55:31.788Z,8.32
2022-12-29T22:57:58.653Z,8.36
2022-12-29T23:00:25.417Z,8.31
2022-12-29T23:02:52.317Z,8.34
2022-12-29T23:05:19.321Z,8.32
2022-12-29T23:07:46.034Z,8.32
2022-12-29T23:10:12.754Z,8.29
2022-12-29T23:12:39.593Z,8.30
2022-12-29T23:15:06.905Z,8.31
2022-12-29T23:17:33.645Z,8.28
2022-12-29T23:20:00.499Z,8.29
2022-12-29T23:22:27.303Z,8.26
2022-12-29T23:24:54.064Z,8.26
2022-12-29T23:27:20.836Z,8.26
2022-12-29T23:29:47.730Z,8.23
2022-12-29T23:32:14.518Z,8.22
2022-12-29T23:34:41.302Z,8.21
2022-12-29T23:37:08.064Z,8.18
2022-12-29T23:39:34.782Z,8.13
2022-12-29T23:42:01.473Z,8.07
2022-12-29T23:44:28.178Z,8.10
2022-12-29T23:46:54.940Z,8.09
2022-12-29T23:49:24.033Z,8.08
2022-12-29T23:51:50.811Z,8.08
2022-12-29T23:54:17.624Z,8.04
2022-12-29T23:56:44.906Z,8.00
2022-12-29T23:59:11.611Z,8.04
